createdAt,value
2024-03-16T00:00:10.888Z,16.12
2024-03-16T00:02:38.713Z,16.12
2024-03-16T00:05:07.250Z,16.10
2024-03-16T00:07:35.041Z,16.09
2024-03-16T00:10:03.223Z,16.08
2024-03-16T00:12:31.816Z,16.08
2024-03-16T00:14:59.682Z,16.08
2024-03-16T00:17:27.426Z,16.06
2024-03-16T00:19:56.220Z,16.04
2024-03-16T00:22:24.059Z,16.03
2024-03-16T00:24:51.870Z,16.02
2024-03-16T00:27:20.179Z,16.02
2024-03-16T00:29:48.602Z,16.02
2024-03-16T00:32:16.410Z,16.00
2024-03-16T00:34:44.175Z,16.01
2024-03-16T00:37:11.956Z,15.98
2024-03-16T00:39:39.858Z,15.96
2024-03-16T00:42:10.821Z,15.95
2024-03-16T00:44:38.739Z,15.94
2024-03-16T00:47:06.704Z,15.92
2024-03-16T00:49:35.894Z,15.92
2024-03-16T00:52:03.727Z,15.92
2024-03-16T00:54:31.515Z,15.90
2024-03-16T00:56:59.274Z,15.90
2024-03-16T00:59:29.281Z,15.89
2024-03-16T01:01:57.063Z,15.88
2024-03-16T01:04:25.552Z,15.88
2024-03-16T01:06:53.653Z,15.87
2024-03-16T01:09:21.486Z,15.87
2024-03-16T01:11:49.239Z,15.85
2024-03-16T01:14:17.926Z,15.85
2024-03-16T01:16:45.777Z,15.83
2024-03-16T01:19:13.750Z,15.84
2024-03-16T01:21:41.556Z,15.82
2024-03-16T01:24:09.285Z,15.82
2024-03-16T01:26:37.051Z,15.80
2024-03-16T01:29:05.311Z,15.79
2024-03-16T01:31:33.856Z,15.78
2024-03-16T01:34:01.674Z,15.78
2024-03-16T01:36:29.568Z,15.77
2024-03-16T01:38:57.337Z,15.77
2024-03-16T01:41:25.076Z,15.75
2024-03-16T01:43:52.815Z,15.77
2024-03-16T01:46:19.679Z,15.76
2024-03-16T01:48:53.011Z,15.75
2024-03-16T01:51:20.770Z,15.73
2024-03-16T01:53:49.230Z,15.73
2024-03-16T01:56:17.245Z,15.72
2024-03-16T01:58:46.556Z,15.70
2024-03-16T02:01:14.578Z,15.70
2024-03-16T02:03:44.143Z,15.69
2024-03-16T02:06:11.931Z,15.67
2024-03-16T02:08:39.118Z,15.67
2024-03-16T02:11:06.940Z,15.66
2024-03-16T02:13:34.764Z,15.66
2024-03-16T02:16:03.090Z,15.65
2024-03-16T02:18:30.971Z,15.64
2024-03-16T02:20:58.705Z,15.63
2024-03-16T02:23:26.472Z,15.64
2024-03-16T02:25:54.282Z,15.64
2024-03-16T02:28:22.019Z,15.62
2024-03-16T02:30:49.846Z,15.62
2024-03-16T02:33:17.714Z,15.61
2024-03-16T02:35:45.694Z,15.60
2024-03-16T02:38:13.447Z,15.59
2024-03-16T02:40:43.450Z,15.59
2024-03-16T02:43:11.560Z,15.57
2024-03-16T02:45:39.377Z,15.56
2024-03-16T02:48:07.592Z,15.54
2024-03-16T02:50:35.384Z,15.53
2024-03-16T02:53:03.239Z,15.52
2024-03-16T02:55:31.873Z,15.53
2024-03-16T02:57:59.790Z,15.51
2024-03-16T03:00:28.229Z,15.52
2024-03-16T03:02:56.129Z,15.52
2024-03-16T03:05:24.892Z,15.51
2024-03-16T03:07:53.930Z,15.49
2024-03-16T03:10:22.871Z,15.50
2024-03-16T03:12:50.764Z,15.49
2024-03-16T03:15:19.526Z,15.49
2024-03-16T03:17:47.282Z,15.48
2024-03-16T03:20:15.305Z,15.47
2024-03-16T03:22:43.070Z,15.46
2024-03-16T03:25:12.116Z,15.44
2024-03-16T03:27:40.270Z,15.45
2024-03-16T03:30:08.557Z,15.44
2024-03-16T03:32:36.406Z,15.45
2024-03-16T03:35:04.503Z,15.43
2024-03-16T03:37:32.369Z,15.43
2024-03-16T03:40:00.542Z,15.41
2024-03-16T03:42:30.828Z,15.41
2024-03-16T03:45:12.301Z,15.40
2024-03-16T03:47:51.416Z,15.40
2024-03-16T03:50:27.600Z,15.40
2024-03-16T03:52:56.311Z,15.38
2024-03-16T03:55:27.307Z,15.37
2024-03-16T03:57:56.091Z,15.36
2024-03-16T04:00:24.128Z,15.35
2024-03-16T04:02:51.921Z,15.34
2024-03-16T04:05:19.778Z,15.34
2024-03-16T04:07:47.546Z,15.34
2024-03-16T04:10:15.420Z,15.33
2024-03-16T04:12:43.322Z,15.33
2024-03-16T04:15:11.179Z,15.33
2024-03-16T04:17:39.057Z,15.32
2024-03-16T04:20:10.888Z,15.31
2024-03-16T04:22:38.788Z,15.30
2024-03-16T04:25:08.791Z,15.30
2024-03-16T04:27:36.699Z,15.29
2024-03-16T04:30:05.095Z,15.29
2024-03-16T04:32:32.955Z,15.28
2024-03-16T04:35:00.828Z,15.29
2024-03-16T04:37:28.679Z,15.27
2024-03-16T04:39:57.240Z,15.27
2024-03-16T04:42:25.159Z,15.27
2024-03-16T04:44:53.002Z,15.27
2024-03-16T04:47:20.774Z,15.26
2024-03-16T04:49:48.556Z,15.25
2024-03-16T04:52:16.851Z,15.25
2024-03-16T04:54:44.750Z,15.23
2024-03-16T04:57:13.434Z,15.23
2024-03-16T04:59:41.481Z,15.23
2024-03-16T05:02:09.373Z,15.21
2024-03-16T05:04:37.400Z,15.22
2024-03-16T05:07:05.269Z,15.21
2024-03-16T05:09:33.321Z,15.20
2024-03-16T05:12:01.541Z,15.18
2024-03-16T05:14:29.723Z,15.16
2024-03-16T05:16:57.472Z,15.16
2024-03-16T05:19:26.600Z,15.17
2024-03-16T05:21:54.481Z,15.16
2024-03-16T05:24:22.554Z,15.16
2024-03-16T05:26:50.393Z,15.15
2024-03-16T05:29:18.184Z,15.14
2024-03-16T05:31:46.416Z,15.15
2024-03-16T05:34:14.959Z,15.13
2024-03-16T05:36:43.253Z,15.14
2024-03-16T05:39:11.238Z,15.12
2024-03-16T05:41:39.740Z,15.11
2024-03-16T05:44:07.565Z,15.11
2024-03-16T05:46:35.327Z,15.11
2024-03-16T05:49:03.215Z,15.10
2024-03-16T05:51:31.458Z,15.11
2024-03-16T05:54:00.698Z,15.11
2024-03-16T05:56:28.556Z,15.10
2024-03-16T05:58:56.924Z,15.11
2024-03-16T06:01:26.159Z,15.11
2024-03-16T06:03:54.190Z,15.11
2024-03-16T06:06:22.391Z,15.10
2024-03-16T06:08:50.169Z,15.11
2024-03-16T06:11:18.023Z,15.12
2024-03-16T06:13:46.396Z,15.13
2024-03-16T06:16:14.581Z,15.12
2024-03-16T06:18:48.224Z,15.13
2024-03-16T06:21:16.167Z,15.14
2024-03-16T06:23:43.969Z,15.16
2024-03-16T06:26:18.118Z,15.15
2024-03-16T06:28:48.443Z,15.16
2024-03-16T06:31:19.670Z,15.18
2024-03-16T06:33:49.592Z,15.17
2024-03-16T06:36:17.437Z,15.21
2024-03-16T06:38:45.202Z,15.22
2024-03-16T06:41:12.987Z,15.24
2024-03-16T06:43:40.747Z,15.31
2024-03-16T06:46:10.046Z,15.38
2024-03-16T06:48:37.968Z,15.42
2024-03-16T06:51:06.049Z,15.44
2024-03-16T06:53:33.881Z,15.43
2024-03-16T06:56:02.497Z,15.43
2024-03-16T06:58:32.108Z,15.44
2024-03-16T07:01:00.775Z,15.46
2024-03-16T07:03:28.686Z,15.45
2024-03-16T07:05:56.496Z,15.42
2024-03-16T07:08:24.420Z,15.38
2024-03-16T07:10:52.461Z,15.36
2024-03-16T07:13:20.216Z,15.32
2024-03-16T07:15:48.109Z,15.31
2024-03-16T07:18:15.962Z,15.29
2024-03-16T07:20:43.842Z,15.27
2024-03-16T07:23:11.628Z,15.28
2024-03-16T07:25:39.435Z,15.27
2024-03-16T07:28:09.037Z,15.27
2024-03-16T07:30:37.209Z,15.28
2024-03-16T07:33:05.369Z,15.28
2024-03-16T07:35:33.276Z,15.28
2024-03-16T07:38:01.105Z,15.29
2024-03-16T07:40:33.059Z,15.33
2024-03-16T07:43:02.437Z,15.33
2024-03-16T07:45:30.410Z,15.32
2024-03-16T07:47:58.279Z,15.32
2024-03-16T07:50:26.074Z,15.27
2024-03-16T07:52:53.853Z,15.22
2024-03-16T07:55:21.770Z,15.20
2024-03-16T07:57:50.043Z,15.21
2024-03-16T08:00:17.933Z,15.21
2024-03-16T08:02:46.125Z,15.25
2024-03-16T08:05:14.078Z,15.24
2024-03-16T08:07:42.615Z,15.25
2024-03-16T08:10:11.298Z,15.26
2024-03-16T08:12:39.450Z,15.32
2024-03-16T08:15:06.998Z,15.38
2024-03-16T08:17:34.839Z,15.44
2024-03-16T08:20:03.637Z,15.52
2024-03-16T08:22:31.495Z,15.59
2024-03-16T08:24:59.410Z,15.66
2024-03-16T08:27:32.464Z,15.68
2024-03-16T08:30:02.646Z,15.66
2024-03-16T08:32:30.934Z,15.66
2024-03-16T08:34:58.743Z,15.66
2024-03-16T08:37:26.731Z,15.66
2024-03-16T08:39:54.712Z,15.75
2024-03-16T08:42:22.593Z,15.84
2024-03-16T08:44:50.413Z,16.00
2024-03-16T08:47:18.168Z,16.25
2024-03-16T08:49:45.937Z,16.39
2024-03-16T08:52:14.509Z,16.56
2024-03-16T08:54:42.435Z,16.79
2024-03-16T08:57:10.292Z,17.05
2024-03-16T08:59:39.481Z,17.33
2024-03-16T09:02:07.453Z,17.44
2024-03-16T09:04:35.666Z,17.60
2024-03-16T09:07:03.788Z,17.73
2024-03-16T09:09:31.760Z,17.91
2024-03-16T09:11:59.844Z,18.00
2024-03-16T09:14:27.636Z,18.15
2024-03-16T09:16:55.397Z,18.31
2024-03-16T09:19:23.334Z,18.42
2024-03-16T09:21:51.945Z,18.54
2024-03-16T09:24:19.750Z,18.61
2024-03-16T09:26:47.522Z,18.72
2024-03-16T09:29:15.278Z,18.72
2024-03-16T09:31:43.025Z,18.80
2024-03-16T09:34:12.068Z,18.84
2024-03-16T09:36:39.994Z,18.87
2024-03-16T09:39:11.561Z,18.92
2024-03-16T09:41:40.603Z,19.02
